ADDS METAR Data INFO
IDs: Format: Raw Decoded Include TAF

Data at: 1249 UTC 19 Oct 2017

KBRD 191153Z AUTO 22006KT 10SM CLR 02/M02 A2999 RMK AO2 SLP164 T00221017 10089 20011 53003
KBRD 191053Z AUTO 21004KT 10SM CLR 03/M03 A2998 RMK AO2 SLP160 T00281028
KBRD 190953Z AUTO 23008KT 10SM CLR 04/M02 A2998 RMK AO2 SLP159 T00391022
KBRD 190853Z AUTO 22008KT 10SM CLR 05/M03 A2998 RMK AO2 SLP157 T00501028 50007
KBRD 190753Z AUTO 24007KT 10SM CLR 06/M03 A2998 RMK AO2 SLP157 T00611033
KBRD 190653Z AUTO 24008KT 10SM CLR 07/M04 A2997 RMK AO2 SLP152 T00671039
KBRD 190553Z AUTO 25009KT 10SM CLR 08/M04 A2996 RMK AO2 SLP147 T00831044 10133 20078 401890078 51006
KBRD 190453Z AUTO 25009KT 10SM CLR 08/M05 A2995 RMK AO2 SLP146 T00831050
KBRD 190353Z AUTO 25008KT 10SM CLR 08/M06 A2994 RMK AO2 SLP145 T00831056
KBRD 190253Z AUTO 25008KT 10SM CLR 09/M07 A2994 RMK AO2 SLP143 T00941072 53016
KBRD 190153Z AUTO 25009KT 10SM CLR 10/M08 A2992 RMK AO2 SLP138 T01001083
KBRD 190053Z AUTO 26014G18KT 10SM CLR 12/M09 A2991 RMK AO2 SLP131 T01171089
KBRD 182353Z AUTO 27011KT 10SM CLR 13/M11 A2989 RMK AO2 SLP126 T01331106 10189 20133 53020
KBRD 182253Z AUTO 26012KT 10SM CLR 14/M07 A2986 RMK AO2 SLP116 T01391072
KBRD 182153Z AUTO 27015KT 10SM CLR 16/M08 A2985 RMK AO2 SLP110 T01561083
KBRD 182053Z AUTO 28019G26KT 10SM CLR 17/M10 A2983 RMK AO2 PK WND 28026/2049 SLP103 T01721100 53010
KBRD 181953Z AUTO 27015KT 10SM CLR 17/M07 A2980 RMK AO2 SLP095 T01721072
KBRD 181853Z AUTO 28017G25KT 10SM CLR 17/M03 A2980 RMK AO2 SLP093 T01721033
KBRD 181753Z AUTO 30010KT 10SM CLR 18/01 A2980 RMK AO2 SLP090 T01830011 10183 20106 53016
KBRD 181653Z AUTO 27013KT 10SM CLR 17/04 A2977 RMK AO2 SLP084 T01670039
KBRD 181553Z AUTO 24008KT 10SM CLR 15/07 A2975 RMK AO2 SLP078 T01500067
KBRD 181453Z AUTO 23007KT 10SM CLR 13/06 A2975 RMK AO2 SLP077 T01280061 53015
KBRD 181353Z AUTO 24009KT 10SM CLR 12/06 A2973 RMK AO2 SLP071 T01220056
KBRD 181253Z AUTO 19010KT 10SM CLR 11/05 A2969 RMK AO2 SLP055 T01110050
KBRD 181153Z AUTO 18010KT 10SM CLR 11/05 A2970 RMK AO2 SLP061 T01110050 10139 20106 56020
KBRD 181053Z AUTO 18012KT 10SM CLR 12/06 A2972 RMK AO2 SLP064 T01170056
KBRD 180953Z AUTO 19008KT 10SM CLR 11/05 A2975 RMK AO2 SLP075 T01110050
KBRD 180853Z AUTO 19008KT 10SM CLR 11/04 A2977 RMK AO2 SLP080 T01110044 56007
KBRD 180753Z AUTO 18010KT 10SM CLR 11/04 A2977 RMK AO2 SLP082 T01110039
KBRD 180653Z AUTO 19010KT 10SM CLR 13/03 A2978 RMK AO2 SLP084 T01330033
KBRD 180553Z AUTO 19010KT 10SM CLR 14/03 A2979 RMK AO2 SLP087 T01390033 10156 20128 402110006 58012
KBRD 180453Z AUTO 19010KT 10SM CLR 14/03 A2980 RMK AO2 SLP093 T01440033
KBRD 180353Z AUTO 18008KT 10SM CLR 13/04 A2982 RMK AO2 SLP100 T01330039
KBRD 180253Z AUTO 18008KT 10SM CLR 13/04 A2982 RMK AO2 SLP103 T01330039 58010
KBRD 180153Z AUTO 18008KT 10SM CLR 14/04 A2984 RMK AO2 SLP109 T01390039
KBRD 180053Z AUTO 18008KT 10SM CLR 14/04 A2985 RMK AO2 SLP114 T01440039